Main page


Airports :

Bahawalpur, Pakistan

Bahawalpur Airport

latitude: 29-20-53N, longitude: 71-43-04E, elevation: 119 m

METAR: missing

Time: 04:03 (23:03 UTC)


The report was made 6 hours and 53 minutes ago, at 16:10 UTC
Forecast valid from 22 at 18 UTC to 23 at 12 UTC
Wind 5 kt from the Northeast
Visibility: 5000 m
Scattered clouds at a height of 12000 ft
Probability 30% :
from 23 at 01 UTC to 23 at 05 UTC
Wind 5 kt from the Northeast
Visibility: 2500 m

TAF: OPBW 221610Z 2218/2312 05005KT 5000 FU SCT120 TN14/2301Z TX30/2310Z PROB30 TEMPO 2301/2305 05005KT 2500 FU NSC

Weather observations and forecasts of more than 4000 airports (METAR and TAF reports).

The available stations are represented by yellow and red dots on the map.

Hover mouse over dot to see the name of the station.

Then click to see weather observations and forecasts.

To change the map : click on the green buttons with a black cross to zoom in, on the green button with a dash to zoom out, or on the green arrows for adjacent maps.